Time;durP1;ratioP1;P1;durP2;ratioP2;P2;SDS_P1;SDS_P2;PMS_P1;PMS_P2;Temp;Humidity;BMP_temperature;BMP_pressure;BME280_temperature;BME280_humidity;BME280_pressure;Samples;Min_cycle;Max_cycle;Signal;HPM_P1;HPM_P2
2023/09/30 00:00:24;;;;;;;20.20;13.90;;;;;;;11.25;100.00;100926.21;104967;1253;62204;-67
2023/09/30 00:02:52;;;;;;;16.20;11.70;;;;;;;11.21;100.00;100926.81;105691;1258;59512;-68
2023/09/30 00:05:20;;;;;;;21.00;11.70;;;;;;;11.17;100.00;100923.94;105174;1258;71558;-69
2023/09/30 00:07:48;;;;;;;18.40;11.90;;;;;;;11.09;100.00;100921.16;105198;1258;66866;-68
2023/09/30 00:18:01;;;;;;;19.20;13.00;;;;;;;10.93;100.00;100917.48;102192;1292;601321;-69
2023/09/30 00:20:29;;;;;;;17.10;11.90;;;;;;;10.89;100.00;100919.52;104758;1270;60100;-68
2023/09/30 00:22:57;;;;;;;21.90;14.40;;;;;;;10.88;100.00;100923.30;104682;1269;60025;-69
2023/09/30 00:25:24;;;;;;;22.10;14.20;;;;;;;10.87;100.00;100924.84;104657;1263;71016;-68
2023/09/30 00:27:52;;;;;;;21.00;13.50;;;;;;;10.87;100.00;100927.06;104863;1268;66898;-71
2023/09/30 00:30:21;;;;;;;14.80;12.60;;;;;;;10.87;100.00;100924.32;104834;1265;72744;-72
2023/09/30 00:32:49;;;;;;;21.50;15.00;;;;;;;10.86;100.00;100926.34;104436;1267;225727;-66
2023/09/30 00:35:17;;;;;;;16.90;14.10;;;;;;;10.85;100.00;100925.33;104663;1263;60049;-68
2023/09/30 00:37:45;;;;;;;24.80;16.30;;;;;;;10.85;100.00;100923.61;104571;1264;70987;-69
2023/09/30 00:40:13;;;;;;;28.40;16.00;;;;;;;10.84;100.00;100927.46;104679;1267;67274;-67
2023/09/30 00:42:41;;;;;;;21.80;14.60;;;;;;;10.82;100.00;100924.69;104645;1264;73093;-67
2023/09/30 00:45:10;;;;;;;22.20;16.10;;;;;;;10.80;100.00;100925.45;104641;1262;61730;-67
2023/09/30 00:47:38;;;;;;;21.60;15.50;;;;;;;10.75;100.00;100927.07;104590;1263;59532;-67
2023/09/30 00:50:08;;;;;;;22.20;16.60;;;;;;;10.71;100.00;100920.63;104971;1267;73103;-68
2023/09/30 00:52:36;;;;;;;25.70;16.50;;;;;;;10.68;100.00;100929.46;104948;1258;67460;-67
2023/09/30 00:55:05;;;;;;;22.70;16.60;;;;;;;10.65;100.00;100931.20;104953;1258;72764;-67
2023/09/30 00:57:33;;;;;;;17.70;14.00;;;;;;;10.62;100.00;100927.94;105077;1258;61188;-67
2023/09/30 01:00:01;;;;;;;21.20;14.90;;;;;;;10.58;100.00;100928.02;105051;1257;59722;-68
2023/09/30 01:02:29;;;;;;;21.40;15.40;;;;;;;10.57;100.00;100925.73;104977;1260;72862;-67
2023/09/30 01:12:42;;;;;;;18.80;14.80;;;;;;;10.46;100.00;100934.34;102096;1288;601035;-67
2023/09/30 01:15:10;;;;;;;18.60;14.60;;;;;;;10.39;100.00;100930.91;104612;1267;59314;-67
2023/09/30 01:17:38;;;;;;;18.80;13.40;;;;;;;10.36;100.00;100931.45;104753;1264;60355;-68
2023/09/30 01:20:08;;;;;;;17.80;12.10;;;;;;;10.32;100.00;100933.99;104605;1268;71964;-68
2023/09/30 01:22:36;;;;;;;17.20;12.20;;;;;;;10.26;100.00;100934.95;104463;1269;66885;-67
2023/09/30 01:25:05;;;;;;;17.00;11.70;;;;;;;10.19;100.00;100939.63;104680;1268;72737;-67
2023/09/30 01:27:32;;;;;;;16.90;12.00;;;;;;;10.14;100.00;100939.15;104552;1266;59290;-69
2023/09/30 01:30:01;;;;;;;15.40;11.10;;;;;;;10.10;100.00;100942.14;104668;1267;60122;-68
2023/09/30 01:32:28;;;;;;;21.80;11.30;;;;;;;10.07;100.00;100940.73;104584;1265;72280;-67
2023/09/30 01:34:56;;;;;;;15.20;11.40;;;;;;;10.06;100.00;100939.87;104739;1262;66984;-67
2023/09/30 01:37:27;;;;;;;15.50;12.20;;;;;;;10.05;100.00;100937.55;105165;1264;72698;-69
2023/09/30 01:39:55;;;;;;;17.30;13.40;;;;;;;10.02;100.00;100936.29;104672;1267;60893;-68
2023/09/30 01:42:23;;;;;;;22.70;15.00;;;;;;;9.99;100.00;100935.02;104783;1265;59574;-68
2023/09/30 01:44:51;;;;;;;17.90;12.10;;;;;;;9.96;100.00;100932.80;105407;1253;73089;-67
2023/09/30 01:47:19;;;;;;;17.10;10.70;;;;;;;9.95;100.00;100934.02;105289;1258;65643;-69
2023/09/30 01:49:47;;;;;;;17.40;11.60;;;;;;;9.94;100.00;100940.42;105129;1253;73280;-68
2023/09/30 01:52:15;;;;;;;17.70;12.40;;;;;;;9.94;100.00;100937.65;105301;1255;59645;-67
2023/09/30 01:54:43;;;;;;;21.40;11.70;;;;;;;9.92;100.00;100939.55;105391;1256;60001;-68
2023/09/30 01:57:11;;;;;;;19.50;11.00;;;;;;;9.91;100.00;100939.86;105726;1255;72842;-68
2023/09/30 01:59:39;;;;;;;21.70;10.90;;;;;;;9.89;100.00;100939.34;105252;1253;66912;-69
2023/09/30 02:02:08;;;;;;;16.10;10.70;;;;;;;9.87;100.00;100936.77;105182;1253;73225;-68
2023/09/30 02:04:36;;;;;;;20.00;11.20;;;;;;;9.85;100.00;100939.45;105354;1254;59744;-67
2023/09/30 02:07:04;;;;;;;18.50;12.50;;;;;;;9.84;100.00;100941.56;105374;1257;59611;-67
2023/09/30 02:09:32;;;;;;;16.70;12.70;;;;;;;9.83;100.00;100938.55;105038;1257;74261;-68
2023/09/30 02:12:00;;;;;;;20.30;14.30;;;;;;;9.82;100.00;100933.35;105282;1258;66901;-68
2023/09/30 02:14:28;;;;;;;17.50;12.80;;;;;;;9.81;100.00;100933.79;105368;1252;72289;-67
2023/09/30 02:16:57;;;;;;;18.30;15.00;;;;;;;9.80;100.00;100930.96;105428;1253;60414;-67
2023/09/30 02:19:27;;;;;;;18.70;14.30;;;;;;;9.77;100.00;100933.49;105350;1257;59612;-68
2023/09/30 02:21:57;;;;;;;20.60;14.80;;;;;;;9.75;100.00;100933.00;105327;1256;73713;-68
2023/09/30 02:24:25;;;;;;;19.40;13.60;;;;;;;9.74;100.00;100933.98;105166;1251;67077;-67
2023/09/30 02:26:53;;;;;;;21.10;15.10;;;;;;;9.71;100.00;100934.95;105187;1257;71308;-67
2023/09/30 02:29:22;;;;;;;23.80;16.00;;;;;;;9.68;100.00;100936.30;105391;1251;61721;-68
2023/09/30 02:31:49;;;;;;;23.30;16.60;;;;;;;9.64;100.00;100936.54;105648;1251;60040;-68
2023/09/30 02:34:17;;;;;;;27.10;18.60;;;;;;;9.61;100.00;100938.12;105362;1256;74216;-67
2023/09/30 02:36:45;;;;;;;20.80;15.40;;;;;;;9.57;100.00;100940.63;105136;1257;65754;-67
2023/09/30 02:39:16;;;;;;;17.30;13.80;;;;;;;9.55;100.00;100939.15;105476;1251;73325;-68
2023/09/30 02:41:44;;;;;;;19.10;14.10;;;;;;;9.52;100.00;100935.27;105362;1253;62186;-68
2023/09/30 02:44:12;;;;;;;20.20;14.60;;;;;;;9.50;100.00;100939.27;105898;1254;59615;-67
2023/09/30 02:46:41;;;;;;;19.40;13.60;;;;;;;9.49;100.00;100941.80;105645;1251;72838;-68
2023/09/30 02:49:09;;;;;;;17.10;13.40;;;;;;;9.47;100.00;100940.43;105743;1257;65740;-68
2023/09/30 02:51:37;;;;;;;19.30;13.50;;;;;;;9.46;100.00;100941.89;105468;1253;73148;-69
2023/09/30 02:54:05;;;;;;;16.40;12.50;;;;;;;9.43;100.00;100939.09;105766;1257;61671;-67
2023/09/30 02:56:33;;;;;;;14.20;11.50;;;;;;;9.41;100.00;100941.20;105779;1251;60203;-66
2023/09/30 02:59:01;;;;;;;19.60;13.60;;;;;;;9.39;100.00;100941.29;105707;1253;73064;-67
2023/09/30 03:01:30;;;;;;;16.40;12.50;;;;;;;9.36;100.00;100938.38;105807;1253;66929;-68
2023/09/30 03:03:58;;;;;;;17.20;12.00;;;;;;;9.35;100.00;100939.97;105920;1258;72770;-68
2023/09/30 03:06:27;;;;;;;17.60;11.80;;;;;;;9.33;100.00;100941.02;105642;1255;60583;-68
2023/09/30 03:08:55;;;;;;;16.20;11.80;;;;;;;9.32;100.00;100941.52;105753;1251;59621;-68
2023/09/30 03:11:22;;;;;;;19.90;13.10;;;;;;;9.30;100.00;100942.85;105380;1256;73075;-67
2023/09/30 03:13:50;;;;;;;17.80;13.20;;;;;;;9.28;100.00;100941.33;105852;1253;66954;-68
2023/09/30 03:16:19;;;;;;;17.70;12.70;;;;;;;9.26;100.00;100941.90;105732;1253;72406;-67
2023/09/30 03:18:48;;;;;;;13.90;11.40;;;;;;;9.24;100.00;100941.44;105589;1253;61660;-67
2023/09/30 03:21:17;;;;;;;15.30;10.00;;;;;;;9.21;100.00;100942.02;105610;1253;59681;-68
2023/09/30 03:23:45;;;;;;;12.80;9.70;;;;;;;9.19;100.00;100945.61;105824;1254;71038;-68
2023/09/30 03:26:13;;;;;;;14.90;9.70;;;;;;;9.17;100.00;100945.99;105632;1253;65670;-67
2023/09/30 03:28:41;;;;;;;15.10;11.20;;;;;;;9.15;100.00;100946.02;105840;1258;72654;-67
2023/09/30 03:31:10;;;;;;;16.50;10.80;;;;;;;9.13;100.00;100944.09;105848;1256;59801;-67
2023/09/30 03:33:39;;;;;;;16.20;11.50;;;;;;;9.12;100.00;100946.06;105949;1253;60662;-69
2023/09/30 03:36:09;;;;;;;16.50;10.60;;;;;;;9.15;100.00;100947.05;105561;1251;73534;-67
2023/09/30 03:38:37;;;;;;;16.30;10.10;;;;;;;9.19;100.00;100949.71;105852;1253;65952;-67
2023/09/30 03:41:08;;;;;;;18.20;10.90;;;;;;;9.24;100.00;100952.55;105696;1253;72530;-67
2023/09/30 03:43:40;;;;;;;15.10;10.10;;;;;;;9.34;100.00;100949.60;105702;1253;60043;-68
2023/09/30 03:46:09;;;;;;;16.10;9.60;;;;;;;9.48;100.00;100955.36;105780;1253;59746;-67
2023/09/30 03:48:39;;;;;;;12.60;9.60;;;;;;;9.65;100.00;100955.21;105855;1252;71676;-67
2023/09/30 03:51:16;;;;;;;17.10;10.40;;;;;;;9.88;100.00;100957.46;105691;1253;65990;-67
2023/09/30 03:53:47;;;;;;;16.20;11.00;;;;;;;10.17;100.00;100956.31;105460;1257;72505;-69
2023/09/30 03:56:15;;;;;;;14.90;9.80;;;;;;;10.51;100.00;100956.86;105847;1256;60077;-68
2023/09/30 03:58:44;;;;;;;14.70;9.10;;;;;;;10.92;100.00;100957.70;105777;1256;59323;-67
2023/09/30 04:01:16;;;;;;;14.00;9.00;;;;;;;11.37;100.00;100958.45;105871;1259;72508;-68
2023/09/30 04:03:44;;;;;;;16.80;9.10;;;;;;;11.83;100.00;100949.44;105788;1253;67484;-68
2023/09/30 04:06:12;;;;;;;14.20;8.50;;;;;;;12.32;100.00;100949.91;105653;1256;71305;-69
2023/09/30 04:08:40;;;;;;;11.70;8.70;;;;;;;12.81;100.00;100946.61;105471;1253;60137;-69
2023/09/30 04:11:09;;;;;;;11.10;9.20;;;;;;;13.30;100.00;100943.33;105821;1253;60673;-69
2023/09/30 04:13:37;;;;;;;14.70;9.00;;;;;;;13.78;100.00;100935.88;105782;1259;73073;-69
2023/09/30 04:16:05;;;;;;;15.30;9.30;;;;;;;14.25;100.00;100922.80;105670;1258;65653;-68
2023/09/30 04:18:33;;;;;;;17.00;9.20;;;;;;;14.72;100.00;100907.63;105462;1253;71409;-68
2023/09/30 04:21:03;;;;;;;15.00;9.80;;;;;;;15.26;100.00;100895.52;105531;1253;60642;-68
2023/09/30 04:23:31;;;;;;;18.60;10.50;;;;;;;15.86;100.00;100887.87;105745;1253;60777;-68
2023/09/30 04:25:59;;;;;;;13.50;9.20;;;;;;;16.45;100.00;100874.73;105588;1253;71833;-68
2023/09/30 04:28:27;;;;;;;15.30;9.20;;;;;;;16.97;100.00;100863.69;105317;1259;66855;-70
2023/09/30 04:30:56;;;;;;;13.50;8.80;;;;;;;17.52;100.00;100856.83;105695;1254;72446;-69
2023/09/30 04:33:25;;;;;;;15.40;10.40;;;;;;;18.02;100.00;100852.42;105407;1256;60090;-69
2023/09/30 04:35:53;;;;;;;26.40;12.60;;;;;;;18.39;100.00;100842.61;105783;1258;59505;-66
2023/09/30 04:38:20;;;;;;;21.20;12.10;;;;;;;18.71;100.00;100842.73;105727;1257;72966;-67
2023/09/30 04:40:51;;;;;;;18.20;11.00;;;;;;;19.07;100.00;100839.80;105334;1259;66427;-68
2023/09/30 04:43:19;;;;;;;23.50;11.40;;;;;;;19.40;100.00;100836.78;105474;1253;72741;-68
2023/09/30 04:45:49;;;;;;;21.30;12.00;;;;;;;19.50;100.00;100835.13;105368;1253;60125;-67
2023/09/30 04:48:17;;;;;;;20.60;10.50;;;;;;;19.35;100.00;100838.61;105412;1253;60035;-67
2023/09/30 04:50:45;;;;;;;15.50;10.30;;;;;;;19.06;100.00;100838.91;105407;1258;74117;-68
2023/09/30 04:53:13;;;;;;;16.10;10.40;;;;;;;18.73;100.00;100840.63;105459;1253;66981;-65
2023/09/30 04:55:41;;;;;;;22.10;10.40;;;;;;;18.46;100.00;100837.85;105476;1259;73201;-67
2023/09/30 04:58:09;;;;;;;14.80;9.80;;;;;;;18.24;100.00;100837.73;105447;1257;59817;-66
2023/09/30 05:00:37;;;;;;;18.40;10.50;;;;;;;18.09;100.00;100844.69;105440;1253;60056;-65
2023/09/30 05:03:05;;;;;;;16.10;9.60;;;;;;;17.97;100.00;100843.91;105473;1257;73064;-66
2023/09/30 05:05:34;;;;;;;16.10;9.10;;;;;;;17.87;100.00;100843.48;105650;1253;67676;-69
2023/09/30 05:08:04;;;;;;;13.70;9.80;;;;;;;17.75;100.00;100844.10;105312;1257;72703;-66
2023/09/30 05:10:31;;;;;;;14.90;9.90;;;;;;;17.62;100.00;100843.05;105543;1257;59710;-67
2023/09/30 05:12:59;;;;;;;17.80;10.00;;;;;;;17.54;100.00;100847.33;105465;1252;60046;-66
2023/09/30 05:15:29;;;;;;;17.30;9.30;;;;;;;17.46;100.00;100847.02;105671;1254;72980;-66
2023/09/30 05:17:57;;;;;;;12.10;8.80;;;;;;;17.42;100.00;100853.30;105560;1255;67136;-66
2023/09/30 05:20:24;;;;;;;14.40;9.30;;;;;;;17.39;100.00;100853.13;105264;1253;72736;-66
2023/09/30 05:22:52;;;;;;;14.30;9.40;;;;;;;17.44;100.00;100852.42;105456;1253;60409;-66
2023/09/30 05:25:24;;;;;;;13.80;10.00;;;;;;;17.55;100.00;100853.16;105423;1253;60325;-67
2023/09/30 05:27:52;;;;;;;13.20;9.30;;;;;;;17.65;100.00;100851.74;105605;1259;73951;-69
2023/09/30 05:30:21;;;;;;;16.50;9.60;;;;;;;17.78;100.00;100850.06;105501;1258;65650;-67
2023/09/30 05:32:52;;;;;;;15.40;9.60;;;;;;;17.88;100.00;100849.73;105505;1253;72689;-64
2023/09/30 05:42:55;;;;;;;12.60;8.00;;;;;;;18.55;100.00;100839.58;102018;1294;601086;-67
2023/09/30 05:45:23;;;;;;;15.20;8.60;;;;;;;18.84;100.00;100836.33;104820;1265;59252;-66
2023/09/30 05:47:56;;;;;;;14.50;8.60;;;;;;;19.05;100.00;100837.74;105176;1263;59315;-66
2023/09/30 05:50:24;;;;;;;13.60;8.70;;;;;;;19.21;100.00;100833.45;105028;1259;72681;-65
2023/09/30 05:52:53;;;;;;;12.20;7.70;;;;;;;19.42;100.00;100835.01;104914;1262;66891;-65
2023/09/30 05:55:22;;;;;;;13.00;8.70;;;;;;;19.65;100.00;100828.92;104928;1256;176747;-65
2023/09/30 05:57:50;;;;;;;16.10;8.60;;;;;;;20.05;100.00;100833.01;105103;1261;60576;-65
2023/09/30 06:00:30;;;;;;;14.60;9.00;;;;;;;20.59;100.00;100830.97;105117;1258;60086;-64
2023/09/30 06:02:59;;;;;;;12.40;8.10;;;;;;;21.28;100.00;100829.29;105241;1256;72271;-64
2023/09/30 06:05:31;;;;;;;13.50;9.70;;;;;;;22.10;96.79;100828.35;105287;1260;65738;-69
2023/09/30 06:08:02;;;;;;;11.50;9.50;;;;;;;22.95;84.05;100823.09;105037;1257;73041;-65
2023/09/30 06:10:31;;;;;;;14.80;9.30;;;;;;;23.63;71.14;100820.85;104845;1264;59746;-65
2023/09/30 06:12:59;;;;;;;12.10;9.40;;;;;;;24.13;62.56;100816.27;105044;1256;59684;-66
2023/09/30 06:15:28;;;;;;;13.10;8.50;;;;;;;24.44;57.69;100817.47;105071;1257;71823;-67
2023/09/30 06:17:56;;;;;;;15.40;9.60;;;;;;;24.76;52.56;100817.20;105091;1262;67076;-66
2023/09/30 06:20:26;;;;;;;15.40;9.30;;;;;;;25.01;49.16;100822.30;105078;1257;72892;-65
2023/09/30 06:22:55;;;;;;;13.30;9.60;;;;;;;25.39;47.96;100824.53;104902;1264;60170;-66
2023/09/30 06:25:27;;;;;;;13.00;9.10;;;;;;;25.73;46.62;100825.36;104944;1257;60684;-66
2023/09/30 06:27:55;;;;;;;16.40;9.90;;;;;;;25.95;44.67;100822.16;105112;1257;71807;-66
2023/09/30 06:30:29;;;;;;;16.40;11.00;;;;;;;26.02;43.62;100821.93;104925;1263;65921;-65
2023/09/30 06:33:00;;;;;;;13.10;9.30;;;;;;;26.16;41.89;100819.22;104798;1259;72755;-67
2023/09/30 06:35:37;;;;;;;14.90;9.00;;;;;;;26.32;41.56;100819.27;104987;1264;59725;-67
2023/09/30 06:38:06;;;;;;;11.50;9.20;;;;;;;26.48;40.42;100816.95;105031;1262;59602;-64
2023/09/30 06:40:35;;;;;;;13.30;8.70;;;;;;;26.52;38.60;100816.02;105036;1256;73119;-63
2023/09/30 06:43:07;;;;;;;14.10;8.80;;;;;;;26.51;38.87;100816.36;105217;1259;68722;-66
2023/09/30 06:45:41;;;;;;;14.30;8.50;;;;;;;26.61;38.53;100812.66;105082;1261;71500;-65
2023/09/30 06:48:12;;;;;;;11.30;7.30;;;;;;;26.76;38.24;100810.49;104769;1258;59814;-65
2023/09/30 06:50:48;;;;;;;12.40;8.60;;;;;;;27.02;37.69;100809.84;105002;1256;59535;-67
2023/09/30 06:53:17;;;;;;;12.40;8.40;;;;;;;27.29;37.38;100809.85;104969;1257;71813;-65
2023/09/30 06:55:45;;;;;;;11.20;8.70;;;;;;;27.55;36.91;100805.65;104976;1260;66899;-65
2023/09/30 06:58:13;;;;;;;13.00;8.40;;;;;;;27.76;35.88;100804.95;105010;1261;73082;-66
2023/09/30 07:00:41;;;;;;;11.30;8.90;;;;;;;27.93;35.19;100805.21;105076;1260;59743;-66
2023/09/30 07:03:09;;;;;;;12.80;9.10;;;;;;;28.06;34.22;100804.59;104964;1256;60605;-66
2023/09/30 07:05:37;;;;;;;13.20;10.00;;;;;;;28.11;33.00;100804.79;104983;1257;73115;-66
2023/09/30 07:08:05;;;;;;;15.80;10.20;;;;;;;28.04;33.19;100806.90;104942;1262;66909;-66
2023/09/30 07:10:33;;;;;;;12.00;9.40;;;;;;;28.10;32.71;100804.92;104653;1256;72707;-66
2023/09/30 07:13:06;;;;;;;11.40;8.10;;;;;;;28.07;32.11;100801.73;105082;1257;60130;-66
2023/09/30 07:15:34;;;;;;;13.60;8.90;;;;;;;27.88;32.38;100802.69;105005;1257;61094;-65
2023/09/30 07:18:02;;;;;;;12.90;9.20;;;;;;;27.81;32.94;100804.02;105170;1256;71788;-66
2023/09/30 07:20:32;;;;;;;14.20;9.60;;;;;;;28.00;32.97;100796.88;104926;1257;67907;-66
2023/09/30 07:23:03;;;;;;;13.30;8.40;;;;;;;28.23;32.32;100794.99;105017;1257;72792;-68
2023/09/30 07:25:47;;;;;;;13.50;8.30;;;;;;;28.38;31.69;100791.48;104992;1256;60180;-66
2023/09/30 07:28:15;;;;;;;13.20;8.10;;;;;;;28.53;30.93;100790.69;104903;1262;59631;-67
2023/09/30 07:30:43;;;;;;;12.30;8.00;;;;;;;28.66;31.14;100792.05;105122;1257;73215;-68
2023/09/30 07:33:11;;;;;;;11.60;7.90;;;;;;;28.75;30.26;100787.04;104736;1262;67057;-67
2023/09/30 07:35:39;;;;;;;10.50;7.80;;;;;;;28.91;31.02;100786.37;105288;1257;72748;-68
2023/09/30 07:38:07;;;;;;;12.20;7.10;;;;;;;29.23;30.51;100787.74;104934;1256;60906;-65
2023/09/30 07:40:36;;;;;;;9.60;7.50;;;;;;;29.61;30.31;100784.92;104992;1257;59720;-66
2023/09/30 07:43:04;;;;;;;10.30;6.80;;;;;;;30.11;29.98;100785.55;104915;1258;73415;-66
2023/09/30 07:45:32;;;;;;;11.20;7.50;;;;;;;30.42;28.02;100780.98;105361;1257;65711;-66
2023/09/30 07:48:00;;;;;;;9.90;7.20;;;;;;;30.32;28.28;100777.81;105451;1257;72686;-67
2023/09/30 07:50:29;;;;;;;11.30;7.10;;;;;;;30.35;27.92;100777.71;105397;1254;59712;-66
2023/09/30 07:52:58;;;;;;;12.10;7.20;;;;;;;30.29;27.72;100774.60;105465;1253;60074;-68
2023/09/30 07:55:26;;;;;;;16.00;6.90;;;;;;;30.20;27.60;100776.75;105444;1251;71794;-67
2023/09/30 07:57:54;;;;;;;10.20;6.40;;;;;;;30.21;28.19;100774.39;105488;1257;66905;-67
2023/09/30 08:00:21;;;;;;;9.50;6.50;;;;;;;30.32;27.88;100768.51;105391;1251;72697;-67
2023/09/30 08:02:50;;;;;;;10.50;6.90;;;;;;;30.40;27.62;100767.10;105411;1256;60096;-67
2023/09/30 08:05:18;;;;;;;8.40;6.60;;;;;;;30.55;28.03;100764.61;105373;1253;60188;-65
2023/09/30 08:07:46;;;;;;;10.40;6.60;;;;;;;30.85;27.87;100755.77;105458;1252;73156;-67
2023/09/30 08:10:16;;;;;;;11.50;6.90;;;;;;;31.12;27.19;100753.33;105351;1251;67020;-64
2023/09/30 08:12:48;;;;;;;9.80;6.90;;;;;;;31.23;27.29;100747.05;105731;1256;72719;-65
2023/09/30 08:15:16;;;;;;;9.50;6.40;;;;;;;31.34;26.77;100747.89;105353;1257;59794;-64
2023/09/30 08:17:45;;;;;;;17.10;5.60;;;;;;;31.38;26.94;100750.70;105336;1252;59610;-65
2023/09/30 08:20:13;;;;;;;11.20;5.60;;;;;;;31.43;26.33;100745.90;105348;1256;71795;-66
2023/09/30 08:22:41;;;;;;;10.70;6.80;;;;;;;31.41;26.00;100749.00;105708;1251;67552;-67
2023/09/30 08:25:10;;;;;;;9.50;6.10;;;;;;;31.34;26.23;100747.73;105258;1251;72762;-65
2023/09/30 08:27:38;;;;;;;10.20;6.90;;;;;;;31.36;26.10;100747.67;105342;1253;59614;-65
2023/09/30 08:30:07;;;;;;;11.60;7.40;;;;;;;31.31;25.85;100747.05;105344;1251;60194;-65
2023/09/30 08:32:35;;;;;;;10.70;6.90;;;;;;;31.14;26.38;100746.11;105712;1253;73085;-66
2023/09/30 08:35:03;;;;;;;11.70;7.10;;;;;;;30.88;26.28;100744.95;104999;1257;66768;-66
2023/09/30 08:37:31;;;;;;;10.00;6.30;;;;;;;30.81;26.66;100740.77;105458;1252;72612;-67
2023/09/30 08:39:59;;;;;;;13.10;7.30;;;;;;;30.83;26.48;100740.50;105348;1256;60266;-65
2023/09/30 08:42:32;;;;;;;7.80;6.10;;;;;;;30.79;26.09;100736.76;105400;1252;59508;-65
2023/09/30 08:45:01;;;;;;;8.70;6.10;;;;;;;30.79;26.18;100741.90;105400;1253;74169;-66
2023/09/30 08:47:29;;;;;;;7.10;5.30;;;;;;;30.68;25.98;100738.62;105430;1251;67083;-66
2023/09/30 08:50:05;;;;;;;10.10;5.50;;;;;;;30.68;26.39;100737.40;105386;1257;72715;-65
2023/09/30 08:52:35;;;;;;;6.70;5.20;;;;;;;30.93;26.04;100736.78;105304;1253;59986;-68
2023/09/30 08:55:08;;;;;;;7.50;4.60;;;;;;;31.13;25.16;100732.72;105790;1251;60097;-67
2023/09/30 08:57:42;;;;;;;6.20;4.10;;;;;;;31.28;24.95;100734.72;105521;1253;64828;-65
2023/09/30 09:00:12;;;;;;;12.10;4.70;;;;;;;31.40;24.85;100735.16;105494;1253;67071;-65
2023/09/30 09:02:40;;;;;;;8.20;5.00;;;;;;;31.36;24.97;100732.86;105860;1252;71406;-67
2023/09/30 09:05:12;;;;;;;6.70;4.80;;;;;;;31.35;24.87;100734.44;105686;1254;59510;-65
2023/09/30 09:07:40;;;;;;;8.90;4.10;;;;;;;31.41;24.63;100732.39;105948;1256;59957;-65
2023/09/30 09:10:10;;;;;;;7.90;4.50;;;;;;;31.23;23.96;100735.10;105665;1251;71953;-64
2023/09/30 09:12:38;;;;;;;6.70;4.60;;;;;;;30.92;24.37;100729.27;105717;1256;67041;-65
2023/09/30 09:15:08;;;;;;;5.60;4.70;;;;;;;30.77;24.71;100733.42;105783;1256;71463;-66
2023/09/30 09:17:43;;;;;;;5.90;4.20;;;;;;;30.72;25.00;100728.69;105732;1251;60119;-65
2023/09/30 09:20:14;;;;;;;9.40;4.80;;;;;;;30.74;24.91;100728.65;105724;1253;60049;-66
2023/09/30 09:22:42;;;;;;;6.10;3.90;;;;;;;30.77;24.60;100724.92;105491;1253;73591;-67
2023/09/30 09:25:10;;;;;;;5.30;3.30;;;;;;;30.91;24.83;100721.29;105587;1253;66876;-64
2023/09/30 09:27:38;;;;;;;6.60;3.80;;;;;;;31.09;24.06;100717.96;105632;1253;71463;-64
2023/09/30 09:30:15;;;;;;;7.50;4.90;;;;;;;31.19;24.25;100717.76;105879;1253;60110;-66
2023/09/30 09:33:05;;;;;;;6.50;4.50;;;;;;;31.34;24.46;100710.00;105749;1253;60206;-66
2023/09/30 09:35:34;;;;;;;5.30;3.70;;;;;;;31.56;23.96;100705.34;105926;1252;71961;-64
2023/09/30 09:38:06;;;;;;;6.20;5.00;;;;;;;31.52;23.48;100709.02;105813;1253;59670;-64
2023/09/30 09:40:38;;;;;;;6.10;4.40;;;;;;;31.37;23.70;100707.34;105903;1257;71449;-65
2023/09/30 09:43:06;;;;;;;9.70;5.20;;;;;;;31.33;23.62;100702.34;105565;1253;59650;-64
2023/09/30 09:45:35;;;;;;;6.00;4.10;;;;;;;31.25;23.27;100700.20;105766;1256;58973;-64
2023/09/30 09:48:04;;;;;;;6.00;3.40;;;;;;;31.11;23.68;100697.98;105753;1251;73086;-65
2023/09/30 09:50:32;;;;;;;6.90;3.80;;;;;;;31.12;23.44;100696.09;105735;1257;66924;-65
2023/09/30 10:00:46;;;;;;;4.00;2.80;;;;;;;30.75;23.02;100687.55;102409;1292;601520;-65
2023/09/30 10:03:14;;;;;;;5.20;2.70;;;;;;;30.56;23.61;100683.88;104896;1265;60104;-64
2023/09/30 10:05:42;;;;;;;3.80;3.00;;;;;;;30.57;23.63;100681.58;105388;1257;60072;-67
2023/09/30 10:14:57;;;;;;;5.80;3.10;;;;;;;30.51;22.72;100676.59;102538;1290;614818;-63
2023/09/30 10:17:57;;;;;;;4.70;3.20;;;;;;;30.33;22.91;100672.48;104999;1266;61718;-64
2023/09/30 10:20:31;;;;;;;5.40;3.30;;;;;;;30.14;23.45;100669.06;104958;1267;62603;-64
2023/09/30 10:23:17;;;;;;;8.70;3.50;;;;;;;30.15;23.78;100662.11;105220;1263;74037;-64
2023/09/30 10:25:47;;;;;;;7.30;3.90;;;;;;;30.19;23.80;100659.73;105115;1264;66364;-66
2023/09/30 10:28:36;;;;;;;6.80;4.60;;;;;;;30.20;23.94;100659.45;104948;1266;185287;-65
2023/09/30 10:31:13;;;;;;;6.60;4.20;;;;;;;30.15;23.79;100653.29;105306;1266;59345;-66
2023/09/30 10:34:02;;;;;;;7.80;4.30;;;;;;;30.12;23.82;100652.28;105594;1257;59214;-65
2023/09/30 10:36:30;;;;;;;6.50;4.10;;;;;;;30.18;24.30;100645.13;105734;1252;71085;-66
2023/09/30 10:38:57;;;;;;;8.40;4.30;;;;;;;30.29;24.69;100644.23;105907;1254;65929;-66
2023/09/30 10:41:40;;;;;;;13.80;5.00;;;;;;;30.44;24.40;100639.39;105571;1254;71701;-65
2023/09/30 10:44:38;;;;;;;9.30;5.00;;;;;;;30.54;24.54;100637.59;105816;1254;60102;-66
2023/09/30 10:47:21;;;;;;;10.60;5.00;;;;;;;30.71;24.72;100637.29;105938;1254;59576;-65
2023/09/30 10:49:48;;;;;;;9.30;5.40;;;;;;;30.96;24.33;100633.56;105833;1254;71830;-65
2023/09/30 10:52:25;;;;;;;7.80;5.90;;;;;;;30.94;23.83;100633.52;105741;1254;67712;-66
2023/09/30 10:54:52;;;;;;;11.50;5.60;;;;;;;30.70;24.14;100627.55;105589;1257;71459;-65
2023/09/30 10:57:28;;;;;;;10.40;6.40;;;;;;;30.57;24.08;100625.52;105668;1254;61091;-65
2023/09/30 11:00:11;;;;;;;10.60;6.00;;;;;;;30.44;24.33;100623.80;105742;1254;60278;-64
2023/09/30 11:02:52;;;;;;;10.50;6.40;;;;;;;30.33;24.27;100621.23;105798;1253;64351;-65
2023/09/30 11:05:20;;;;;;;8.40;6.30;;;;;;;30.12;24.29;100616.63;106213;1257;67203;-65
2023/09/30 11:07:59;;;;;;;12.80;6.00;;;;;;;29.97;24.90;100612.78;105910;1258;72346;-66
2023/09/30 11:10:27;;;;;;;8.60;5.30;;;;;;;30.08;24.92;100605.81;105557;1254;60444;-65
2023/09/30 11:12:58;;;;;;;10.50;5.40;;;;;;;30.24;24.98;100603.96;105602;1254;59704;-65
2023/09/30 11:15:27;;;;;;;9.80;6.00;;;;;;;30.38;24.72;100600.88;106105;1257;73428;-66
2023/09/30 11:17:56;;;;;;;9.60;6.70;;;;;;;30.42;24.51;100604.52;105882;1257;65915;-67
2023/09/30 11:20:24;;;;;;;9.70;5.90;;;;;;;30.36;24.54;100598.77;105711;1260;71424;-67
2023/09/30 11:22:51;;;;;;;9.50;6.00;;;;;;;30.31;24.87;100601.31;105851;1257;61143;-66
2023/09/30 11:25:18;;;;;;;8.30;5.00;;;;;;;30.29;24.50;100594.34;105735;1255;60841;-65
2023/09/30 11:27:46;;;;;;;9.50;5.60;;;;;;;30.29;24.55;100594.84;106038;1253;64463;-67
2023/09/30 11:30:14;;;;;;;7.80;5.20;;;;;;;30.22;24.19;100592.91;105535;1257;67161;-65
2023/09/30 11:32:42;;;;;;;8.20;5.00;;;;;;;30.20;24.96;100590.65;105814;1257;72429;-66
2023/09/30 11:35:11;;;;;;;9.40;5.80;;;;;;;30.31;24.72;100589.16;105621;1257;60347;-66
2023/09/30 11:37:41;;;;;;;12.40;8.00;;;;;;;30.34;24.33;100586.45;105715;1254;60365;-67
2023/09/30 11:40:13;;;;;;;9.10;5.80;;;;;;;30.28;24.05;100584.38;105609;1255;73489;-65
2023/09/30 11:42:40;;;;;;;11.70;6.70;;;;;;;30.17;24.19;100579.38;105547;1257;66014;-64
2023/09/30 11:45:22;;;;;;;14.60;7.00;;;;;;;30.14;24.36;100577.28;106198;1253;72826;-64
2023/09/30 11:47:49;;;;;;;12.10;7.70;;;;;;;30.00;24.18;100580.03;105688;1254;60647;-65
2023/09/30 11:50:16;;;;;;;13.00;8.20;;;;;;;29.77;24.73;100579.96;105736;1255;61009;-65
2023/09/30 11:52:46;;;;;;;9.70;7.00;;;;;;;29.65;25.37;100578.11;105776;1254;73053;-64